Aérodrome :
LOGIN :

S'inscrire | Disclaimer

   EN    FR    IT 

 










Légende :    VFR   VFR Marginal   IFR   IFR Intensif   IFR Très Intensif
Visi : 
Plafond : 
>= 8 km
>= 3000ft
5 à 8 km
1000 à 3000 ft
1500m à 5 km
500 à 1000 ft
800 à 1500m
200 à 500 ft
< 800m
< 200 ft
Symboles :   Orages  Brouillard  Fortes neiges  Fortes précipitations  Vent > 20 kt
SIGMETs :   Divers  Orages  Givrage  Turbulence  Onde Orograph.  Cendres Volcan.







- Altitude de l'aérodrome : 128 ft


ETND - Diepholz

DERNIER METAR :
  • 170820Z 26015G27KT 9999 FEW020 SCT060 BKN330 14/09 Q1017 BLU+BLU TEMPO BLU+

METARs EXPIRÉS :
  • 170720Z 26010KT 9999 BKN060 BKN330 12/08 Q1018 BLU BLU
  • 170620Z 26009KT 9999 FEW060 BKN330 11/08 Q1018 BLU+BLU+ TEMPO BLU

TAF TAF ETND
Valide du 17 à 08h jusqu'au 17 à 17h UTC


170704Z 1708/1717 27012KT 9999 NSW SCT020 BKN050
BECMG 1708/1710 29015G25KT 9999 NSW SCT020 BKN050
TEMPO 1710/1713 31020G30KT 4000 SHRA BKN020TCU
TEMPO 1713/1717 31025G40KT 4000 SHRA BKN020TCU BY ETGL
Pas de NOTAMs connus pour ce terrain.



MET'MAP, la Météo Aéronautique d'un coup d'oeil ! - Copyright ORBIFLY Décembre 2007 - Disclaimer

ORBIFLY MET'MAP TEAM :

Programmation & Développement : Alexandra Zaïnal
Conception & Développement : Baudouin d'Aumeries
Co-Programmation & Développement : Marc-Olivier Méhu
Soutien technique & logistique : Manuel Goepfert

Contact : metmap@orbifly.com




SOURCES & CREDITS :

   NOAA